sensor_id;sensor_type;location;lat;lon;timestamp;P1;durP1;ratioP1;P2;durP2;ratioP2
59169;SDS011;52474;52.236;5.114;2022-09-09T00:04:11;1.27;;;1.00;;
59169;SDS011;52474;52.236;5.114;2022-09-09T00:09:32;3.08;;;0.90;;
59169;SDS011;52474;52.236;5.114;2022-09-09T00:17:35;1.60;;;1.10;;
59169;SDS011;52474;52.236;5.114;2022-09-09T00:20:16;1.77;;;1.30;;
59169;SDS011;52474;52.236;5.114;2022-09-09T00:23:00;4.65;;;1.15;;
59169;SDS011;52474;52.236;5.114;2022-09-09T00:28:45;1.50;;;1.20;;
59169;SDS011;52474;52.236;5.114;2022-09-09T00:31:29;4.72;;;1.50;;
59169;SDS011;52474;52.236;5.114;2022-09-09T00:34:03;4.10;;;1.40;;
59169;SDS011;52474;52.236;5.114;2022-09-09T00:36:45;3.83;;;1.70;;
59169;SDS011;52474;52.236;5.114;2022-09-09T00:39:34;4.17;;;1.97;;
59169;SDS011;52474;52.236;5.114;2022-09-09T00:42:13;5.28;;;1.85;;
59169;SDS011;52474;52.236;5.114;2022-09-09T00:44:41;4.60;;;1.80;;
59169;SDS011;52474;52.236;5.114;2022-09-09T00:47:48;4.10;;;1.80;;
59169;SDS011;52474;52.236;5.114;2022-09-09T00:50:17;4.00;;;2.30;;
59169;SDS011;52474;52.236;5.114;2022-09-09T00:55:26;3.92;;;1.65;;
59169;SDS011;52474;52.236;5.114;2022-09-09T00:58:06;4.07;;;1.80;;
59169;SDS011;52474;52.236;5.114;2022-09-09T01:00:41;7.35;;;2.60;;
59169;SDS011;52474;52.236;5.114;2022-09-09T01:03:13;4.43;;;2.38;;
59169;SDS011;52474;52.236;5.114;2022-09-09T01:10:58;4.82;;;2.25;;
59169;SDS011;52474;52.236;5.114;2022-09-09T01:13:29;5.85;;;2.75;;
59169;SDS011;52474;52.236;5.114;2022-09-09T01:16:00;4.97;;;2.63;;
59169;SDS011;52474;52.236;5.114;2022-09-09T01:18:33;5.07;;;2.53;;
59169;SDS011;52474;52.236;5.114;2022-09-09T01:21:22;5.70;;;2.60;;
59169;SDS011;52474;52.236;5.114;2022-09-09T01:24:27;5.38;;;2.80;;
59169;SDS011;52474;52.236;5.114;2022-09-09T01:27:10;5.15;;;3.10;;
59169;SDS011;52474;52.236;5.114;2022-09-09T01:29:40;5.38;;;2.95;;
59169;SDS011;52474;52.236;5.114;2022-09-09T01:35:11;7.15;;;3.08;;
59169;SDS011;52474;52.236;5.114;2022-09-09T01:37:44;5.35;;;3.00;;
59169;SDS011;52474;52.236;5.114;2022-09-09T01:40:10;3.80;;;2.90;;
59169;SDS011;52474;52.236;5.114;2022-09-09T01:42:37;5.10;;;3.00;;
59169;SDS011;52474;52.236;5.114;2022-09-09T01:45:03;9.73;;;3.53;;
59169;SDS011;52474;52.236;5.114;2022-09-09T01:47:29;6.60;;;2.95;;
59169;SDS011;52474;52.236;5.114;2022-09-09T01:50:16;7.68;;;3.67;;
59169;SDS011;52474;52.236;5.114;2022-09-09T01:52:42;5.05;;;2.97;;
59169;SDS011;52474;52.236;5.114;2022-09-09T01:55:13;5.78;;;2.85;;
59169;SDS011;52474;52.236;5.114;2022-09-09T02:00:18;6.93;;;3.80;;
59169;SDS011;52474;52.236;5.114;2022-09-09T02:08:29;6.03;;;3.38;;
59169;SDS011;52474;52.236;5.114;2022-09-09T02:13:56;6.90;;;3.90;;
59169;SDS011;52474;52.236;5.114;2022-09-09T02:21:39;7.63;;;4.20;;
59169;SDS011;52474;52.236;5.114;2022-09-09T02:24:08;7.50;;;4.32;;
59169;SDS011;52474;52.236;5.114;2022-09-09T02:26:42;6.65;;;4.25;;
59169;SDS011;52474;52.236;5.114;2022-09-09T02:29:14;9.35;;;4.65;;
59169;SDS011;52474;52.236;5.114;2022-09-09T02:31:43;10.20;;;4.88;;
59169;SDS011;52474;52.236;5.114;2022-09-09T02:34:16;8.15;;;5.35;;
59169;SDS011;52474;52.236;5.114;2022-09-09T02:36:45;6.97;;;4.82;;
59169;SDS011;52474;52.236;5.114;2022-09-09T02:39:12;8.80;;;4.65;;
59169;SDS011;52474;52.236;5.114;2022-09-09T02:41:40;8.98;;;5.53;;
59169;SDS011;52474;52.236;5.114;2022-09-09T02:44:15;10.52;;;5.85;;
59169;SDS011;52474;52.236;5.114;2022-09-09T02:52:26;9.88;;;6.38;;
59169;SDS011;52474;52.236;5.114;2022-09-09T02:55:00;8.93;;;5.80;;
59169;SDS011;52474;52.236;5.114;2022-09-09T02:57:36;12.90;;;6.55;;
59169;SDS011;52474;52.236;5.114;2022-09-09T03:00:04;11.65;;;6.38;;
59169;SDS011;52474;52.236;5.114;2022-09-09T03:02:32;10.75;;;6.22;;
59169;SDS011;52474;52.236;5.114;2022-09-09T03:05:04;12.98;;;6.60;;
59169;SDS011;52474;52.236;5.114;2022-09-09T03:07:31;9.75;;;6.43;;
59169;SDS011;52474;52.236;5.114;2022-09-09T03:09:57;11.05;;;6.10;;
59169;SDS011;52474;52.236;5.114;2022-09-09T03:12:26;11.18;;;6.13;;
59169;SDS011;52474;52.236;5.114;2022-09-09T03:14:51;10.18;;;5.90;;
59169;SDS011;52474;52.236;5.114;2022-09-09T03:17:17;12.10;;;6.97;;
59169;SDS011;52474;52.236;5.114;2022-09-09T03:19:51;11.07;;;5.82;;
59169;SDS011;52474;52.236;5.114;2022-09-09T03:22:20;8.88;;;5.75;;
59169;SDS011;52474;52.236;5.114;2022-09-09T03:24:46;12.73;;;5.55;;
59169;SDS011;52474;52.236;5.114;2022-09-09T03:27:12;12.05;;;5.65;;
59169;SDS011;52474;52.236;5.114;2022-09-09T03:29:40;11.65;;;6.47;;
59169;SDS011;52474;52.236;5.114;2022-09-09T03:32:10;12.73;;;5.78;;
59169;SDS011;52474;52.236;5.114;2022-09-09T03:34:36;9.10;;;5.70;;
59169;SDS011;52474;52.236;5.114;2022-09-09T03:37:06;10.00;;;5.90;;
59169;SDS011;52474;52.236;5.114;2022-09-09T03:39:32;11.32;;;6.57;;
59169;SDS011;52474;52.236;5.114;2022-09-09T03:41:58;10.35;;;5.75;;
59169;SDS011;52474;52.236;5.114;2022-09-09T03:44:24;8.98;;;5.40;;
59169;SDS011;52474;52.236;5.114;2022-09-09T03:46:50;11.85;;;5.60;;
59169;SDS011;52474;52.236;5.114;2022-09-09T03:49:16;9.80;;;4.93;;
59169;SDS011;52474;52.236;5.114;2022-09-09T03:51:42;9.23;;;5.97;;
59169;SDS011;52474;52.236;5.114;2022-09-09T03:54:10;8.82;;;5.25;;
59169;SDS011;52474;52.236;5.114;2022-09-09T03:56:36;13.13;;;6.22;;
59169;SDS011;52474;52.236;5.114;2022-09-09T03:59:02;7.97;;;5.22;;
59169;SDS011;52474;52.236;5.114;2022-09-09T04:01:29;10.05;;;6.10;;
59169;SDS011;52474;52.236;5.114;2022-09-09T04:03:55;9.13;;;6.13;;
59169;SDS011;52474;52.236;5.114;2022-09-09T04:06:23;7.85;;;5.63;;
59169;SDS011;52474;52.236;5.114;2022-09-09T04:08:50;8.65;;;4.65;;
59169;SDS011;52474;52.236;5.114;2022-09-09T04:11:18;12.13;;;6.28;;
59169;SDS011;52474;52.236;5.114;2022-09-09T04:13:47;11.80;;;5.25;;
59169;SDS011;52474;52.236;5.114;2022-09-09T04:16:14;14.15;;;5.68;;
59169;SDS011;52474;52.236;5.114;2022-09-09T04:18:42;8.13;;;5.43;;
59169;SDS011;52474;52.236;5.114;2022-09-09T04:21:08;13.43;;;5.72;;
59169;SDS011;52474;52.236;5.114;2022-09-09T04:23:35;9.43;;;5.40;;
59169;SDS011;52474;52.236;5.114;2022-09-09T04:26:02;11.30;;;5.20;;
59169;SDS011;52474;52.236;5.114;2022-09-09T04:28:32;9.25;;;4.72;;
59169;SDS011;52474;52.236;5.114;2022-09-09T04:31:06;8.15;;;5.13;;
59169;SDS011;52474;52.236;5.114;2022-09-09T04:33:34;10.80;;;5.07;;
59169;SDS011;52474;52.236;5.114;2022-09-09T04:36:00;9.82;;;5.03;;
59169;SDS011;52474;52.236;5.114;2022-09-09T04:38:26;9.52;;;4.53;;
59169;SDS011;52474;52.236;5.114;2022-09-09T04:40:54;9.18;;;5.03;;
59169;SDS011;52474;52.236;5.114;2022-09-09T04:43:20;8.55;;;5.10;;
59169;SDS011;52474;52.236;5.114;2022-09-09T04:45:48;7.13;;;4.43;;
59169;SDS011;52474;52.236;5.114;2022-09-09T04:48:18;8.50;;;4.85;;
59169;SDS011;52474;52.236;5.114;2022-09-09T04:50:53;8.75;;;4.47;;
59169;SDS011;52474;52.236;5.114;2022-09-09T04:53:27;6.63;;;4.30;;
59169;SDS011;52474;52.236;5.114;2022-09-09T04:56:00;8.23;;;4.70;;
59169;SDS011;52474;52.236;5.114;2022-09-09T04:58:31;8.32;;;4.13;;
59169;SDS011;52474;52.236;5.114;2022-09-09T05:01:10;10.38;;;4.68;;
59169;SDS011;52474;52.236;5.114;2022-09-09T05:03:39;7.50;;;4.40;;
59169;SDS011;52474;52.236;5.114;2022-09-09T05:06:09;9.75;;;4.53;;
59169;SDS011;52474;52.236;5.114;2022-09-09T05:08:36;10.40;;;5.22;;
59169;SDS011;52474;52.236;5.114;2022-09-09T05:11:04;7.65;;;4.40;;
59169;SDS011;52474;52.236;5.114;2022-09-09T05:14:24;7.47;;;4.60;;
59169;SDS011;52474;52.236;5.114;2022-09-09T05:16:50;8.52;;;5.47;;
59169;SDS011;52474;52.236;5.114;2022-09-09T05:19:17;11.40;;;5.57;;
59169;SDS011;52474;52.236;5.114;2022-09-09T05:21:47;8.07;;;4.25;;
59169;SDS011;52474;52.236;5.114;2022-09-09T05:24:16;9.57;;;4.20;;
59169;SDS011;52474;52.236;5.114;2022-09-09T05:26:43;7.45;;;3.80;;
59169;SDS011;52474;52.236;5.114;2022-09-09T05:29:10;6.00;;;3.90;;
59169;SDS011;52474;52.236;5.114;2022-09-09T05:31:35;12.27;;;4.63;;
59169;SDS011;52474;52.236;5.114;2022-09-09T05:34:06;9.45;;;4.53;;
59169;SDS011;52474;52.236;5.114;2022-09-09T05:36:32;9.05;;;4.82;;
59169;SDS011;52474;52.236;5.114;2022-09-09T05:38:58;6.40;;;3.65;;
59169;SDS011;52474;52.236;5.114;2022-09-09T05:41:26;7.13;;;4.38;;
59169;SDS011;52474;52.236;5.114;2022-09-09T05:43:55;9.73;;;3.97;;
59169;SDS011;52474;52.236;5.114;2022-09-09T05:46:23;12.20;;;4.53;;
59169;SDS011;52474;52.236;5.114;2022-09-09T05:48:51;9.80;;;4.93;;
59169;SDS011;52474;52.236;5.114;2022-09-09T05:51:24;10.15;;;5.40;;
59169;SDS011;52474;52.236;5.114;2022-09-09T05:53:56;9.00;;;4.13;;
59169;SDS011;52474;52.236;5.114;2022-09-09T05:56:25;10.32;;;4.57;;
59169;SDS011;52474;52.236;5.114;2022-09-09T06:01:22;10.48;;;4.13;;
59169;SDS011;52474;52.236;5.114;2022-09-09T06:04:00;10.10;;;4.15;;
59169;SDS011;52474;52.236;5.114;2022-09-09T06:06:31;13.88;;;4.10;;
59169;SDS011;52474;52.236;5.114;2022-09-09T06:09:06;9.77;;;3.80;;
59169;SDS011;52474;52.236;5.114;2022-09-09T06:14:02;6.88;;;3.70;;
59169;SDS011;52474;52.236;5.114;2022-09-09T06:16:30;9.00;;;3.70;;
59169;SDS011;52474;52.236;5.114;2022-09-09T06:18:58;7.30;;;3.60;;
59169;SDS011;52474;52.236;5.114;2022-09-09T06:21:29;10.65;;;4.35;;
59169;SDS011;52474;52.236;5.114;2022-09-09T06:23:59;9.48;;;3.95;;
59169;SDS011;52474;52.236;5.114;2022-09-09T06:26:27;7.05;;;3.78;;
59169;SDS011;52474;52.236;5.114;2022-09-09T06:28:56;5.93;;;3.63;;
59169;SDS011;52474;52.236;5.114;2022-09-09T06:31:24;10.52;;;3.65;;
59169;SDS011;52474;52.236;5.114;2022-09-09T06:33:53;9.05;;;4.05;;
59169;SDS011;52474;52.236;5.114;2022-09-09T06:36:22;9.95;;;3.97;;
59169;SDS011;52474;52.236;5.114;2022-09-09T06:38:51;7.30;;;3.20;;
59169;SDS011;52474;52.236;5.114;2022-09-09T06:41:18;7.25;;;3.15;;
59169;SDS011;52474;52.236;5.114;2022-09-09T06:43:45;7.20;;;3.20;;
59169;SDS011;52474;52.236;5.114;2022-09-09T06:46:16;8.80;;;3.40;;
59169;SDS011;52474;52.236;5.114;2022-09-09T06:48:48;6.43;;;3.53;;
59169;SDS011;52474;52.236;5.114;2022-09-09T06:51:19;9.48;;;3.33;;
59169;SDS011;52474;52.236;5.114;2022-09-09T06:53:49;5.70;;;2.80;;
59169;SDS011;52474;52.236;5.114;2022-09-09T06:58:52;6.88;;;2.45;;
59169;SDS011;52474;52.236;5.114;2022-09-09T07:01:25;2.75;;;2.40;;
59169;SDS011;52474;52.236;5.114;2022-09-09T07:03:54;9.27;;;3.17;;
59169;SDS011;52474;52.236;5.114;2022-09-09T07:06:22;6.07;;;2.40;;
59169;SDS011;52474;52.236;5.114;2022-09-09T07:08:51;7.15;;;2.70;;
59169;SDS011;52474;52.236;5.114;2022-09-09T07:11:19;5.47;;;2.83;;
59169;SDS011;52474;52.236;5.114;2022-09-09T07:13:46;4.90;;;2.42;;
59169;SDS011;52474;52.236;5.114;2022-09-09T07:16:14;7.63;;;2.70;;
59169;SDS011;52474;52.236;5.114;2022-09-09T07:18:42;7.25;;;3.22;;
59169;SDS011;52474;52.236;5.114;2022-09-09T07:21:09;4.72;;;3.20;;
59169;SDS011;52474;52.236;5.114;2022-09-09T07:23:38;9.10;;;3.47;;
59169;SDS011;52474;52.236;5.114;2022-09-09T07:26:08;8.65;;;3.15;;
59169;SDS011;52474;52.236;5.114;2022-09-09T07:28:40;8.02;;;3.40;;
59169;SDS011;52474;52.236;5.114;2022-09-09T07:31:07;9.73;;;3.30;;
59169;SDS011;52474;52.236;5.114;2022-09-09T07:33:40;5.97;;;3.13;;
59169;SDS011;52474;52.236;5.114;2022-09-09T07:36:07;8.27;;;2.95;;
59169;SDS011;52474;52.236;5.114;2022-09-09T07:38:45;7.90;;;3.20;;
59169;SDS011;52474;52.236;5.114;2022-09-09T07:41:14;7.25;;;4.00;;
59169;SDS011;52474;52.236;5.114;2022-09-09T07:43:44;6.70;;;3.50;;
59169;SDS011;52474;52.236;5.114;2022-09-09T07:46:12;8.40;;;3.90;;
59169;SDS011;52474;52.236;5.114;2022-09-09T07:48:44;5.85;;;3.03;;
59169;SDS011;52474;52.236;5.114;2022-09-09T07:51:15;8.32;;;4.20;;
59169;SDS011;52474;52.236;5.114;2022-09-09T07:53:46;10.90;;;4.45;;
59169;SDS011;52474;52.236;5.114;2022-09-09T07:56:13;7.90;;;4.03;;
59169;SDS011;52474;52.236;5.114;2022-09-09T07:58:44;7.53;;;4.07;;
59169;SDS011;52474;52.236;5.114;2022-09-09T08:01:12;8.35;;;4.00;;
59169;SDS011;52474;52.236;5.114;2022-09-09T08:03:43;10.20;;;4.95;;
59169;SDS011;52474;52.236;5.114;2022-09-09T08:06:17;7.72;;;4.05;;
59169;SDS011;52474;52.236;5.114;2022-09-09T08:08:43;7.07;;;4.70;;
59169;SDS011;52474;52.236;5.114;2022-09-09T08:11:11;6.75;;;4.18;;
59169;SDS011;52474;52.236;5.114;2022-09-09T08:13:40;9.00;;;3.87;;
59169;SDS011;52474;52.236;5.114;2022-09-09T08:16:09;6.90;;;3.78;;
59169;SDS011;52474;52.236;5.114;2022-09-09T08:18:37;8.30;;;3.90;;
59169;SDS011;52474;52.236;5.114;2022-09-09T08:21:15;11.43;;;4.00;;
59169;SDS011;52474;52.236;5.114;2022-09-09T08:23:44;8.67;;;4.13;;
59169;SDS011;52474;52.236;5.114;2022-09-09T08:26:12;8.90;;;3.90;;
59169;SDS011;52474;52.236;5.114;2022-09-09T08:28:44;11.00;;;4.10;;
59169;SDS011;52474;52.236;5.114;2022-09-09T08:33:41;7.20;;;3.65;;
59169;SDS011;52474;52.236;5.114;2022-09-09T08:36:10;8.55;;;3.97;;
59169;SDS011;52474;52.236;5.114;2022-09-09T08:38:37;8.23;;;3.40;;
59169;SDS011;52474;52.236;5.114;2022-09-09T08:41:49;8.35;;;3.10;;
59169;SDS011;52474;52.236;5.114;2022-09-09T08:47:15;4.97;;;2.90;;
59169;SDS011;52474;52.236;5.114;2022-09-09T08:53:02;6.25;;;3.15;;
59169;SDS011;52474;52.236;5.114;2022-09-09T08:58:21;6.82;;;3.03;;
59169;SDS011;52474;52.236;5.114;2022-09-09T09:12:40;7.78;;;3.15;;
59169;SDS011;52474;52.236;5.114;2022-09-09T09:15:11;5.38;;;2.80;;
59169;SDS011;52474;52.236;5.114;2022-09-09T09:17:48;6.30;;;3.05;;
59169;SDS011;52474;52.236;5.114;2022-09-09T09:20:15;7.82;;;2.70;;
59169;SDS011;52474;52.236;5.114;2022-09-09T09:22:48;7.95;;;3.08;;
59169;SDS011;52474;52.236;5.114;2022-09-09T09:25:21;7.07;;;2.65;;
59169;SDS011;52474;52.236;5.114;2022-09-09T09:28:23;8.80;;;3.42;;
59169;SDS011;52474;52.236;5.114;2022-09-09T09:30:58;7.55;;;2.78;;
59169;SDS011;52474;52.236;5.114;2022-09-09T09:33:35;7.45;;;2.95;;
59169;SDS011;52474;52.236;5.114;2022-09-09T09:36:12;6.43;;;3.50;;
59169;SDS011;52474;52.236;5.114;2022-09-09T09:38:55;7.75;;;2.67;;
59169;SDS011;52474;52.236;5.114;2022-09-09T09:41:37;8.77;;;3.45;;
59169;SDS011;52474;52.236;5.114;2022-09-09T09:44:18;6.35;;;3.25;;
59169;SDS011;52474;52.236;5.114;2022-09-09T09:46:49;7.85;;;2.95;;
59169;SDS011;52474;52.236;5.114;2022-09-09T09:49:15;6.72;;;2.63;;
59169;SDS011;52474;52.236;5.114;2022-09-09T09:51:43;6.95;;;2.58;;
59169;SDS011;52474;52.236;5.114;2022-09-09T09:56:39;8.20;;;3.00;;
59169;SDS011;52474;52.236;5.114;2022-09-09T09:59:19;9.35;;;2.67;;
59169;SDS011;52474;52.236;5.114;2022-09-09T10:01:54;8.98;;;2.55;;
59169;SDS011;52474;52.236;5.114;2022-09-09T10:04:21;7.32;;;2.60;;
59169;SDS011;52474;52.236;5.114;2022-09-09T10:06:53;6.80;;;2.35;;
59169;SDS011;52474;52.236;5.114;2022-09-09T10:09:23;7.18;;;2.60;;
59169;SDS011;52474;52.236;5.114;2022-09-09T10:23:13;10.13;;;2.60;;
59169;SDS011;52474;52.236;5.114;2022-09-09T10:28:30;5.53;;;2.53;;
59169;SDS011;52474;52.236;5.114;2022-09-09T10:33:56;3.58;;;2.10;;
59169;SDS011;52474;52.236;5.114;2022-09-09T10:36:34;8.02;;;3.22;;
59169;SDS011;52474;52.236;5.114;2022-09-09T10:42:05;7.07;;;3.03;;
59169;SDS011;52474;52.236;5.114;2022-09-09T10:53:14;6.63;;;2.20;;
59169;SDS011;52474;52.236;5.114;2022-09-09T10:55:53;5.05;;;2.03;;
59169;SDS011;52474;52.236;5.114;2022-09-09T10:58:30;9.45;;;2.70;;
59169;SDS011;52474;52.236;5.114;2022-09-09T11:01:03;6.03;;;2.38;;
59169;SDS011;52474;52.236;5.114;2022-09-09T11:03:48;6.63;;;2.72;;
59169;SDS011;52474;52.236;5.114;2022-09-09T11:06:27;3.13;;;1.75;;
59169;SDS011;52474;52.236;5.114;2022-09-09T11:09:09;10.35;;;2.53;;
59169;SDS011;52474;52.236;5.114;2022-09-09T11:11:45;6.45;;;1.73;;
59169;SDS011;52474;52.236;5.114;2022-09-09T11:14:26;6.25;;;2.28;;
59169;SDS011;52474;52.236;5.114;2022-09-09T11:17:12;5.50;;;1.90;;
59169;SDS011;52474;52.236;5.114;2022-09-09T11:19:42;4.75;;;2.28;;
59169;SDS011;52474;52.236;5.114;2022-09-09T11:24:41;7.13;;;2.70;;
59169;SDS011;52474;52.236;5.114;2022-09-09T11:27:18;6.93;;;2.38;;
59169;SDS011;52474;52.236;5.114;2022-09-09T11:33:00;5.72;;;2.45;;
59169;SDS011;52474;52.236;5.114;2022-09-09T11:35:58;6.65;;;2.83;;
59169;SDS011;52474;52.236;5.114;2022-09-09T11:38:45;4.60;;;2.15;;
59169;SDS011;52474;52.236;5.114;2022-09-09T11:41:13;8.00;;;2.50;;
59169;SDS011;52474;52.236;5.114;2022-09-09T11:43:48;3.92;;;2.15;;
59169;SDS011;52474;52.236;5.114;2022-09-09T11:46:20;4.97;;;2.38;;
59169;SDS011;52474;52.236;5.114;2022-09-09T11:51:27;5.78;;;2.53;;
59169;SDS011;52474;52.236;5.114;2022-09-09T11:56:43;8.30;;;2.90;;
59169;SDS011;52474;52.236;5.114;2022-09-09T12:02:00;6.30;;;2.38;;
59169;SDS011;52474;52.236;5.114;2022-09-09T12:04:37;3.72;;;2.58;;
59169;SDS011;52474;52.236;5.114;2022-09-09T12:07:28;7.50;;;2.72;;
59169;SDS011;52474;52.236;5.114;2022-09-09T12:10:05;6.68;;;2.70;;
59169;SDS011;52474;52.236;5.114;2022-09-09T12:12:51;6.18;;;3.25;;
59169;SDS011;52474;52.236;5.114;2022-09-09T12:15:18;5.82;;;3.10;;
59169;SDS011;52474;52.236;5.114;2022-09-09T12:17:52;8.48;;;2.85;;
59169;SDS011;52474;52.236;5.114;2022-09-09T12:20:23;5.63;;;2.85;;
59169;SDS011;52474;52.236;5.114;2022-09-09T12:26:40;5.15;;;3.88;;
59169;SDS011;52474;52.236;5.114;2022-09-09T12:34:17;5.63;;;3.20;;
59169;SDS011;52474;52.236;5.114;2022-09-09T12:37:14;7.00;;;3.47;;
59169;SDS011;52474;52.236;5.114;2022-09-09T12:40:26;4.47;;;3.05;;
59169;SDS011;52474;52.236;5.114;2022-09-09T12:42:49;6.85;;;3.17;;
59169;SDS011;52474;52.236;5.114;2022-09-09T12:45:16;4.53;;;3.15;;
59169;SDS011;52474;52.236;5.114;2022-09-09T12:47:54;8.43;;;4.15;;
59169;SDS011;52474;52.236;5.114;2022-09-09T12:50:27;5.28;;;3.53;;
59169;SDS011;52474;52.236;5.114;2022-09-09T12:52:55;7.38;;;3.00;;
59169;SDS011;52474;52.236;5.114;2022-09-09T12:55:25;6.53;;;3.20;;
59169;SDS011;52474;52.236;5.114;2022-09-09T12:57:55;6.60;;;3.90;;
59169;SDS011;52474;52.236;5.114;2022-09-09T13:00:25;5.45;;;3.60;;
59169;SDS011;52474;52.236;5.114;2022-09-09T13:03:02;6.82;;;3.53;;
59169;SDS011;52474;52.236;5.114;2022-09-09T13:05:40;6.07;;;3.53;;
59169;SDS011;52474;52.236;5.114;2022-09-09T13:08:06;7.90;;;3.92;;
59169;SDS011;52474;52.236;5.114;2022-09-09T13:10:36;8.68;;;3.95;;
59169;SDS011;52474;52.236;5.114;2022-09-09T13:13:15;6.00;;;3.25;;
59169;SDS011;52474;52.236;5.114;2022-09-09T13:15:52;5.72;;;3.90;;
59169;SDS011;52474;52.236;5.114;2022-09-09T13:18:23;9.95;;;3.45;;
59169;SDS011;52474;52.236;5.114;2022-09-09T13:20:52;5.13;;;3.25;;
59169;SDS011;52474;52.236;5.114;2022-09-09T13:23:19;6.80;;;3.00;;
59169;SDS011;52474;52.236;5.114;2022-09-09T13:25:59;6.07;;;3.03;;
59169;SDS011;52474;52.236;5.114;2022-09-09T13:28:28;4.97;;;3.28;;
59169;SDS011;52474;52.236;5.114;2022-09-09T13:30:58;6.60;;;3.40;;
59169;SDS011;52474;52.236;5.114;2022-09-09T13:33:29;5.47;;;3.30;;
59169;SDS011;52474;52.236;5.114;2022-09-09T13:35:56;4.30;;;3.40;;
59169;SDS011;52474;52.236;5.114;2022-09-09T13:38:24;9.27;;;3.93;;
59169;SDS011;52474;52.236;5.114;2022-09-09T13:40:57;6.27;;;4.00;;
59169;SDS011;52474;52.236;5.114;2022-09-09T13:43:27;5.82;;;3.83;;
59169;SDS011;52474;52.236;5.114;2022-09-09T13:45:54;7.07;;;3.75;;
59169;SDS011;52474;52.236;5.114;2022-09-09T13:48:23;5.45;;;4.05;;
59169;SDS011;52474;52.236;5.114;2022-09-09T13:51:00;6.28;;;3.42;;
59169;SDS011;52474;52.236;5.114;2022-09-09T13:55:55;5.72;;;3.15;;
59169;SDS011;52474;52.236;5.114;2022-09-09T13:58:22;5.38;;;3.20;;
59169;SDS011;52474;52.236;5.114;2022-09-09T14:00:50;6.40;;;3.25;;
59169;SDS011;52474;52.236;5.114;2022-09-09T14:03:16;4.47;;;3.28;;
59169;SDS011;52474;52.236;5.114;2022-09-09T14:05:43;7.20;;;3.05;;
59169;SDS011;52474;52.236;5.114;2022-09-09T14:08:11;5.97;;;3.08;;
59169;SDS011;52474;52.236;5.114;2022-09-09T14:10:43;5.00;;;2.97;;
59169;SDS011;52474;52.236;5.114;2022-09-09T14:13:08;7.00;;;2.90;;
59169;SDS011;52474;52.236;5.114;2022-09-09T14:15:34;4.07;;;2.67;;
59169;SDS011;52474;52.236;5.114;2022-09-09T14:18:00;4.63;;;3.33;;
59169;SDS011;52474;52.236;5.114;2022-09-09T14:20:26;4.82;;;2.90;;
59169;SDS011;52474;52.236;5.114;2022-09-09T14:22:52;5.22;;;2.95;;
59169;SDS011;52474;52.236;5.114;2022-09-09T14:25:18;4.88;;;2.80;;
59169;SDS011;52474;52.236;5.114;2022-09-09T14:27:44;7.25;;;2.78;;
59169;SDS011;52474;52.236;5.114;2022-09-09T14:30:11;5.07;;;2.80;;
59169;SDS011;52474;52.236;5.114;2022-09-09T14:32:39;7.10;;;3.58;;
59169;SDS011;52474;52.236;5.114;2022-09-09T14:35:04;4.82;;;3.38;;
59169;SDS011;52474;52.236;5.114;2022-09-09T14:37:30;4.63;;;2.90;;
59169;SDS011;52474;52.236;5.114;2022-09-09T14:39:57;9.10;;;3.20;;
59169;SDS011;52474;52.236;5.114;2022-09-09T14:42:23;6.78;;;3.00;;
59169;SDS011;52474;52.236;5.114;2022-09-09T14:44:49;6.22;;;3.30;;
59169;SDS011;52474;52.236;5.114;2022-09-09T14:47:15;5.47;;;2.67;;
59169;SDS011;52474;52.236;5.114;2022-09-09T14:49:41;5.75;;;2.67;;
59169;SDS011;52474;52.236;5.114;2022-09-09T14:52:06;4.57;;;2.53;;
59169;SDS011;52474;52.236;5.114;2022-09-09T14:54:35;2.75;;;2.47;;
59169;SDS011;52474;52.236;5.114;2022-09-09T14:57:00;4.70;;;2.40;;
59169;SDS011;52474;52.236;5.114;2022-09-09T14:59:26;4.97;;;2.58;;
59169;SDS011;52474;52.236;5.114;2022-09-09T15:01:52;3.53;;;2.25;;
59169;SDS011;52474;52.236;5.114;2022-09-09T15:04:18;4.03;;;2.20;;
59169;SDS011;52474;52.236;5.114;2022-09-09T15:06:44;1.98;;;1.52;;
59169;SDS011;52474;52.236;5.114;2022-09-09T15:09:14;6.65;;;1.85;;
59169;SDS011;52474;52.236;5.114;2022-09-09T15:11:40;2.60;;;1.20;;
59169;SDS011;52474;52.236;5.114;2022-09-09T15:14:07;3.88;;;1.00;;
59169;SDS011;52474;52.236;5.114;2022-09-09T15:16:34;2.65;;;1.10;;
59169;SDS011;52474;52.236;5.114;2022-09-09T15:19:01;1.20;;;0.82;;
59169;SDS011;52474;52.236;5.114;2022-09-09T15:21:32;3.30;;;1.20;;
59169;SDS011;52474;52.236;5.114;2022-09-09T15:23:59;3.45;;;1.63;;
59169;SDS011;52474;52.236;5.114;2022-09-09T15:26:25;2.72;;;1.20;;
59169;SDS011;52474;52.236;5.114;2022-09-09T15:28:52;2.35;;;1.40;;
59169;SDS011;52474;52.236;5.114;2022-09-09T15:31:21;3.65;;;1.50;;
59169;SDS011;52474;52.236;5.114;2022-09-09T15:33:49;1.75;;;1.55;;
59169;SDS011;52474;52.236;5.114;2022-09-09T15:36:20;4.70;;;1.75;;
59169;SDS011;52474;52.236;5.114;2022-09-09T15:38:47;2.20;;;1.50;;
59169;SDS011;52474;52.236;5.114;2022-09-09T15:41:14;3.53;;;2.08;;
59169;SDS011;52474;52.236;5.114;2022-09-09T15:43:44;2.65;;;1.77;;
59169;SDS011;52474;52.236;5.114;2022-09-09T15:46:21;6.05;;;2.10;;
59169;SDS011;52474;52.236;5.114;2022-09-09T15:51:54;4.85;;;2.67;;
59169;SDS011;52474;52.236;5.114;2022-09-09T15:54:23;6.18;;;2.30;;
59169;SDS011;52474;52.236;5.114;2022-09-09T15:56:51;5.93;;;2.22;;
59169;SDS011;52474;52.236;5.114;2022-09-09T15:59:20;5.80;;;2.20;;
59169;SDS011;52474;52.236;5.114;2022-09-09T16:01:46;4.45;;;2.70;;
59169;SDS011;52474;52.236;5.114;2022-09-09T16:04:12;4.85;;;2.05;;
59169;SDS011;52474;52.236;5.114;2022-09-09T16:06:38;4.93;;;2.45;;
59169;SDS011;52474;52.236;5.114;2022-09-09T16:09:04;4.47;;;2.22;;
59169;SDS011;52474;52.236;5.114;2022-09-09T16:11:36;4.78;;;2.38;;
59169;SDS011;52474;52.236;5.114;2022-09-09T16:14:04;4.25;;;2.58;;
59169;SDS011;52474;52.236;5.114;2022-09-09T16:16:31;7.90;;;2.50;;
59169;SDS011;52474;52.236;5.114;2022-09-09T16:19:02;5.88;;;2.10;;
59169;SDS011;52474;52.236;5.114;2022-09-09T16:21:37;4.63;;;1.90;;
59169;SDS011;52474;52.236;5.114;2022-09-09T16:24:05;4.50;;;2.20;;
59169;SDS011;52474;52.236;5.114;2022-09-09T16:26:33;4.05;;;1.70;;
59169;SDS011;52474;52.236;5.114;2022-09-09T16:29:01;3.15;;;1.63;;
59169;SDS011;52474;52.236;5.114;2022-09-09T16:31:28;1.80;;;1.50;;
59169;SDS011;52474;52.236;5.114;2022-09-09T16:33:55;3.25;;;1.33;;
59169;SDS011;52474;52.236;5.114;2022-09-09T16:36:24;4.28;;;1.70;;
59169;SDS011;52474;52.236;5.114;2022-09-09T16:38:59;4.13;;;1.70;;
59169;SDS011;52474;52.236;5.114;2022-09-09T16:41:27;2.85;;;1.60;;
59169;SDS011;52474;52.236;5.114;2022-09-09T16:43:55;6.00;;;1.60;;
59169;SDS011;52474;52.236;5.114;2022-09-09T16:46:25;3.80;;;1.60;;
59169;SDS011;52474;52.236;5.114;2022-09-09T16:48:53;4.28;;;1.60;;
59169;SDS011;52474;52.236;5.114;2022-09-09T16:51:24;5.13;;;2.25;;
59169;SDS011;52474;52.236;5.114;2022-09-09T16:53:53;3.25;;;1.70;;
59169;SDS011;52474;52.236;5.114;2022-09-09T16:56:23;3.42;;;1.77;;
59169;SDS011;52474;52.236;5.114;2022-09-09T16:58:51;4.93;;;1.90;;
59169;SDS011;52474;52.236;5.114;2022-09-09T17:01:24;3.47;;;1.83;;
59169;SDS011;52474;52.236;5.114;2022-09-09T17:03:54;5.18;;;2.10;;
59169;SDS011;52474;52.236;5.114;2022-09-09T17:06:21;3.70;;;1.90;;
59169;SDS011;52474;52.236;5.114;2022-09-09T17:08:47;7.00;;;2.30;;
59169;SDS011;52474;52.236;5.114;2022-09-09T17:11:15;4.57;;;2.13;;
59169;SDS011;52474;52.236;5.114;2022-09-09T17:13:44;4.20;;;2.30;;
59169;SDS011;52474;52.236;5.114;2022-09-09T17:16:11;7.72;;;2.97;;
59169;SDS011;52474;52.236;5.114;2022-09-09T17:18:38;3.90;;;2.92;;
59169;SDS011;52474;52.236;5.114;2022-09-09T17:21:05;6.40;;;2.83;;
59169;SDS011;52474;52.236;5.114;2022-09-09T17:23:33;4.32;;;2.78;;
59169;SDS011;52474;52.236;5.114;2022-09-09T17:26:04;5.97;;;3.00;;